Aviation Digital Data Service (ADDS)

Output produced by METARs form (0308 UTC 18 August 2017)
found at http://www.aviationweather.gov/adds/metars/
 
SOCA 180300Z AUTO 00000KT 9999 FEW020 24/24 Q1012 NOSIG
TAF SOCA 172300Z 1800/1824 VRB02KT CAVOK 
     BECMG 1811/1813 12010KT 9999 SCT020 
     PROB30 
     TEMPO 1815/1818 4000 SHRA FEW012TCU